createdAt,value
2022-12-22T00:00:03.561Z,7.0
2022-12-22T00:15:01.702Z,7.0
2022-12-22T00:30:01.648Z,7.0
2022-12-22T00:45:01.289Z,7.0
2022-12-22T01:00:03.396Z,7.0
2022-12-22T01:15:01.413Z,7.0
2022-12-22T01:30:01.354Z,7.0
2022-12-22T01:40:01.363Z,7.1
2022-12-22T01:45:01.301Z,7.1
2022-12-22T02:00:03.175Z,7.1
2022-12-22T02:15:01.416Z,7.1
2022-12-22T02:25:01.394Z,7.2
2022-12-22T02:30:01.242Z,7.2
2022-12-22T02:45:01.341Z,7.2
2022-12-22T02:50:01.292Z,7.1
2022-12-22T03:00:03.143Z,7.1
2022-12-22T03:15:02.527Z,7.1
2022-12-22T03:25:01.429Z,7.2
2022-12-22T03:30:02.335Z,7.2
2022-12-22T03:45:01.362Z,7.2
2022-12-22T04:00:03.604Z,7.2
2022-12-22T04:15:01.482Z,7.2
2022-12-22T04:30:01.612Z,7.2
2022-12-22T04:45:06.929Z,7.2
2022-12-22T05:00:03.154Z,7.1
2022-12-22T05:10:01.404Z,7.2
2022-12-22T05:15:01.491Z,7.2
2022-12-22T05:30:01.779Z,7.2
2022-12-22T05:45:01.763Z,7.2
2022-12-22T06:00:03.741Z,7.2
2022-12-22T06:15:01.558Z,7.2
2022-12-22T06:30:01.408Z,7.2
2022-12-22T06:45:01.701Z,7.2
2022-12-22T07:01:07.050Z,7.2
2022-12-22T07:16:07.711Z,7.2
2022-12-22T07:32:01.519Z,7.2
2022-12-22T07:47:01.467Z,7.2
2022-12-22T07:57:01.354Z,7.1
2022-12-22T08:12:01.319Z,7.1
2022-12-22T08:17:01.371Z,7.2
2022-12-22T08:32:01.209Z,7.2
2022-12-22T08:37:01.126Z,7.3
2022-12-22T08:42:01.127Z,7.2
2022-12-22T08:57:06.224Z,7.2
2022-12-22T09:12:01.105Z,7.2
2022-12-22T09:28:01.172Z,7.2
2022-12-22T09:43:06.182Z,7.2
2022-12-22T09:58:01.253Z,7.2
2022-12-22T10:08:01.166Z,7.3
2022-12-22T10:23:01.115Z,7.3
2022-12-22T10:39:01.139Z,7.3
2022-12-22T10:54:06.172Z,7.3
2022-12-22T11:04:01.157Z,7.2
2022-12-22T11:19:01.131Z,7.2
2022-12-22T11:34:01.101Z,7.2
2022-12-22T11:39:01.137Z,7.3
2022-12-22T11:54:05.481Z,7.4
2022-12-22T12:09:01.129Z,7.5
2022-12-22T12:24:01.512Z,7.5
2022-12-22T12:39:09.584Z,7.5
2022-12-22T12:44:01.399Z,7.6
2022-12-22T12:59:01.485Z,7.7
2022-12-22T13:09:14.274Z,7.8
2022-12-22T13:30:01.337Z,7.7
2022-12-22T14:00:03.234Z,7.3
2022-12-22T14:10:00.760Z,7.2
2022-12-22T14:15:00.782Z,7.2
2022-12-22T14:20:00.576Z,7.1
2022-12-22T14:30:07.394Z,7.0
2022-12-22T14:45:00.726Z,7.0
2022-12-22T15:00:02.613Z,7.0
2022-12-22T15:15:00.869Z,7.0
2022-12-22T15:30:00.667Z,7.0
2022-12-22T15:35:00.739Z,6.9
2022-12-22T15:45:01.923Z,7.0
2022-12-22T16:00:07.429Z,7.0
2022-12-22T16:10:01.967Z,7.1
2022-12-22T16:15:00.719Z,7.1
2022-12-22T16:25:00.840Z,7.0
2022-12-22T16:30:00.594Z,7.0
2022-12-22T16:45:01.713Z,7.0
2022-12-22T17:00:02.510Z,7.0
2022-12-22T17:15:00.796Z,7.0
2022-12-22T17:30:00.997Z,7.0
2022-12-22T17:45:01.206Z,7.0
2022-12-22T17:50:00.675Z,6.9
2022-12-22T17:55:00.758Z,7.0
2022-12-22T18:00:02.368Z,7.0
2022-12-22T18:15:00.773Z,7.0
2022-12-22T18:30:00.756Z,7.0
2022-12-22T18:40:00.807Z,6.9
2022-12-22T18:45:01.068Z,6.9
2022-12-22T19:00:13.419Z,6.9
2022-12-22T19:15:00.726Z,6.9
2022-12-22T19:30:04.338Z,6.9
2022-12-22T19:35:00.718Z,6.8
2022-12-22T19:40:00.912Z,6.9
2022-12-22T19:45:04.108Z,6.9
2022-12-22T20:00:02.783Z,6.9
2022-12-22T20:05:00.847Z,7.0
2022-12-22T20:15:00.756Z,7.0
2022-12-22T20:30:00.812Z,7.0
2022-12-22T20:45:01.705Z,7.0
2022-12-22T21:00:02.571Z,6.9
2022-12-22T21:15:01.807Z,6.9
2022-12-22T21:30:00.846Z,6.9
2022-12-22T21:45:00.818Z,6.9
2022-12-22T22:00:02.669Z,6.9
2022-12-22T22:15:00.878Z,6.9
2022-12-22T22:30:01.067Z,7.0
2022-12-22T22:45:00.822Z,7.0
2022-12-22T22:55:00.910Z,7.1
2022-12-22T23:00:00.985Z,7.1
2022-12-22T23:15:00.888Z,7.1
2022-12-22T23:30:02.832Z,7.1
2022-12-22T23:45:00.881Z,7.1
2022-12-22T23:50:00.720Z,7.0
